createdAt,value
2023-04-02T00:00:10.213Z,96643.59
2023-04-02T00:03:11.021Z,96639.47
2023-04-02T00:05:54.738Z,96636.91
2023-04-02T00:08:24.596Z,96639.25
2023-04-02T00:10:59.521Z,96628.25
2023-04-02T00:13:34.461Z,96623.09
2023-04-02T00:16:06.298Z,96618.19
2023-04-02T00:18:40.186Z,96606.78
2023-04-02T00:21:38.232Z,96598.44
2023-04-02T00:24:14.243Z,96600.81
2023-04-02T00:26:54.835Z,96598.34
2023-04-02T00:29:27.535Z,96593.41
2023-04-02T00:32:00.178Z,96596.81
2023-04-02T00:34:47.318Z,96594.47
2023-04-02T00:37:44.480Z,96587.56
2023-04-02T00:40:24.980Z,96584.59
2023-04-02T00:42:56.172Z,96585.69
2023-04-02T00:45:37.971Z,96585.66
2023-04-02T00:48:43.842Z,96596.47
2023-04-02T00:51:26.508Z,96586.06
2023-04-02T00:54:02.932Z,96590.47
2023-04-02T00:56:44.568Z,96576.47
2023-04-02T00:59:31.424Z,96584.59
2023-04-02T01:02:30.211Z,96585.09
2023-04-02T01:05:29.382Z,96596.75
2023-04-02T01:08:20.569Z,96599.22
2023-04-02T01:11:04.495Z,96605.59
2023-04-02T01:13:49.777Z,96599.34
2023-04-02T01:16:46.760Z,96593.53
2023-04-02T01:19:30.419Z,96596.47
2023-04-02T01:22:22.558Z,96600.13
2023-04-02T01:24:55.398Z,96598.91
2023-04-02T01:27:38.092Z,96604.06
2023-04-02T01:30:13.035Z,96613.66
2023-04-02T01:32:45.675Z,96601.63
2023-04-02T01:35:14.175Z,96594.22
2023-04-02T01:37:53.420Z,96597.97
2023-04-02T01:40:52.463Z,96597.72
2023-04-02T01:43:52.429Z,96598.47
2023-04-02T01:46:49.069Z,96598.91
2023-04-02T01:49:21.505Z,96595.22
2023-04-02T01:51:57.224Z,96598.16
2023-04-02T01:54:31.524Z,96608.94
2023-04-02T01:57:02.601Z,96612.16
2023-04-02T01:59:33.914Z,96612.59
2023-04-02T02:02:29.969Z,96606.91
2023-04-02T02:04:57.273Z,96602.56
2023-04-02T02:07:28.696Z,96595.41
2023-04-02T02:10:02.427Z,96590.72
2023-04-02T02:12:33.762Z,96586.53
2023-04-02T02:15:01.303Z,96587.44
2023-04-02T02:17:35.003Z,96581.34
2023-04-02T02:20:11.053Z,96583.47
2023-04-02T02:22:45.101Z,96572.66
2023-04-02T02:25:21.032Z,96571.72
2023-04-02T02:27:58.822Z,96558.03
2023-04-02T02:30:54.631Z,96551.81
2023-04-02T02:33:54.972Z,96547.81
2023-04-02T02:36:49.707Z,96544.41
2023-04-02T02:42:42.433Z,96528.09
2023-04-02T02:45:26.442Z,96535.66
2023-04-02T02:47:59.520Z,96527.66
2023-04-02T02:50:39.080Z,96535.47
2023-04-02T02:53:24.588Z,96541.50
2023-04-02T02:56:00.040Z,96556.06
2023-04-02T02:58:37.280Z,96575.44
2023-04-02T03:01:21.176Z,96573.53
2023-04-02T03:04:20.896Z,96566.53
2023-04-02T03:06:54.566Z,96549.00
2023-04-02T03:09:52.148Z,96553.97
2023-04-02T03:12:45.273Z,96552.06
2023-04-02T03:16:03.666Z,96547.28
2023-04-02T03:18:45.233Z,96545.56
2023-04-02T03:21:51.840Z,96533.28
2023-04-02T03:24:59.857Z,96531.94
2023-04-02T03:27:37.598Z,96533.72
2023-04-02T03:30:55.468Z,96535.25
2023-04-02T03:33:36.342Z,96531.31
2023-04-02T03:36:22.640Z,96535.66
2023-04-02T03:39:15.166Z,96526.06
2023-04-02T03:42:17.304Z,96536.59
2023-04-02T03:45:27.632Z,96537.06
2023-04-02T03:48:59.308Z,96534.50
2023-04-02T03:52:06.525Z,96531.34
2023-04-02T03:54:53.658Z,96533.66
2023-04-02T03:57:46.145Z,96530.97
2023-04-02T04:00:44.489Z,96539.66
2023-04-02T04:03:46.173Z,96532.81
2023-04-02T04:06:56.831Z,96543.63
2023-04-02T04:12:52.186Z,96548.56
2023-04-02T04:16:26.590Z,96556.72
2023-04-02T04:19:07.127Z,96570.44
2023-04-02T04:21:39.895Z,96576.38
2023-04-02T04:24:22.041Z,96585.09
2023-04-02T04:27:26.033Z,96584.44
2023-04-02T04:30:23.733Z,96580.41
2023-04-02T04:33:05.375Z,96586.38
2023-04-02T04:35:40.371Z,96584.06
2023-04-02T04:38:39.279Z,96595.53
2023-04-02T04:41:32.799Z,96597.19
2023-04-02T04:44:38.736Z,96609.56
2023-04-02T04:47:50.210Z,96608.56
2023-04-02T04:50:54.853Z,96611.16
2023-04-02T04:53:31.114Z,96613.31
2023-04-02T04:56:18.838Z,96620.31
2023-04-02T04:58:59.237Z,96607.91
2023-04-02T05:01:42.126Z,96612.78
2023-04-02T05:04:40.308Z,96612.13
2023-04-02T05:07:28.335Z,96605.34
2023-04-02T05:10:36.043Z,96617.06
2023-04-02T05:13:43.385Z,96603.47
2023-04-02T05:16:23.465Z,96599.50
2023-04-02T05:19:10.326Z,96603.22
2023-04-02T05:21:48.786Z,96603.63
2023-04-02T05:25:02.600Z,96593.09
2023-04-02T05:28:26.938Z,96594.28
2023-04-02T05:31:12.487Z,96614.66
2023-04-02T05:33:50.824Z,96614.25
2023-04-02T05:36:41.155Z,96615.09
2023-04-02T05:39:12.141Z,96603.06
2023-04-02T05:41:56.612Z,96608.66
2023-04-02T05:44:35.797Z,96609.25
2023-04-02T05:47:31.562Z,96609.41
2023-04-02T05:50:14.920Z,96618.50
2023-04-02T05:53:27.007Z,96618.50
2023-04-02T05:56:30.532Z,96616.03
2023-04-02T05:59:33.986Z,96615.03
2023-04-02T06:02:30.968Z,96613.59
2023-04-02T06:05:20.478Z,96613.28
2023-04-02T06:08:04.290Z,96609.44
2023-04-02T06:11:18.410Z,96607.63
2023-04-02T06:13:48.605Z,96611.09
2023-04-02T06:16:32.562Z,96610.38
2023-04-02T06:19:04.038Z,96606.19
2023-04-02T06:21:36.743Z,96607.31
2023-04-02T06:24:18.516Z,96597.03
2023-04-02T06:27:02.623Z,96596.69
2023-04-02T06:29:42.596Z,96589.25
2023-04-02T06:32:15.907Z,96592.56
2023-04-02T06:34:46.058Z,96580.31
2023-04-02T06:37:48.844Z,96577.56
2023-04-02T06:40:59.650Z,96573.41
2023-04-02T06:43:36.605Z,96562.66
2023-04-02T06:46:31.177Z,96566.50
2023-04-02T06:49:44.405Z,96562.38
2023-04-02T06:52:44.991Z,96554.44
2023-04-02T06:56:15.506Z,96551.03
2023-04-02T06:58:47.273Z,96546.47
2023-04-02T07:01:31.047Z,96537.75
2023-04-02T07:03:58.682Z,96543.25
2023-04-02T07:06:28.565Z,96537.31
2023-04-02T07:09:04.384Z,96537.28
2023-04-02T07:11:37.022Z,96528.25
2023-04-02T07:14:04.923Z,96536.16
2023-04-02T07:16:35.365Z,96531.94
2023-04-02T07:19:11.672Z,96546.13
2023-04-02T07:21:39.075Z,96537.03
2023-04-02T07:24:08.805Z,96532.03
2023-04-02T07:26:36.675Z,96529.84
2023-04-02T07:29:08.259Z,96542.66
2023-04-02T07:31:39.439Z,96542.63
2023-04-02T07:34:14.486Z,96542.75
2023-04-02T07:36:52.407Z,96551.50
2023-04-02T07:39:22.374Z,96558.13
2023-04-02T07:41:59.864Z,96560.75
2023-04-02T07:44:31.052Z,96558.25
2023-04-02T07:46:58.229Z,96565.47
2023-04-02T07:49:36.689Z,96552.44
2023-04-02T07:52:04.105Z,96552.94
2023-04-02T07:54:31.483Z,96556.75
2023-04-02T07:57:02.554Z,96563.03
2023-04-02T07:59:43.121Z,96552.91
2023-04-02T08:02:25.452Z,96563.59
2023-04-02T08:04:56.966Z,96565.06
2023-04-02T08:07:30.330Z,96562.13
2023-04-02T08:10:14.369Z,96562.78
2023-04-02T08:12:46.563Z,96573.19
2023-04-02T08:15:29.323Z,96575.13
2023-04-02T08:18:04.443Z,96572.50
2023-04-02T08:20:43.706Z,96572.84
2023-04-02T08:23:29.093Z,96577.59
2023-04-02T08:25:56.363Z,96572.19
2023-04-02T08:28:24.038Z,96569.06
2023-04-02T08:30:52.832Z,96574.41
2023-04-02T08:33:20.422Z,96576.81
2023-04-02T08:35:50.738Z,96570.91
2023-04-02T08:38:24.765Z,96578.91
2023-04-02T08:41:02.845Z,96578.31
2023-04-02T08:43:38.840Z,96578.31
2023-04-02T08:46:52.835Z,96577.53
2023-04-02T08:50:10.693Z,96577.69
2023-04-02T08:52:44.141Z,96586.22
2023-04-02T08:55:30.055Z,96575.88
2023-04-02T08:58:46.036Z,96571.72
2023-04-02T09:01:53.938Z,96580.50
2023-04-02T09:04:28.568Z,96578.53
2023-04-02T09:07:09.820Z,96582.56
2023-04-02T09:09:40.969Z,96582.97
2023-04-02T09:12:25.486Z,96580.16
2023-04-02T09:18:24.280Z,96574.31
2023-04-02T09:22:00.869Z,96574.09
2023-04-02T09:24:38.327Z,96577.38
2023-04-02T09:27:27.271Z,96584.00
2023-04-02T09:30:30.630Z,96574.13
2023-04-02T09:33:07.402Z,96578.09
2023-04-02T09:35:53.959Z,96574.75
2023-04-02T09:38:37.356Z,96578.00
2023-04-02T09:41:24.496Z,96587.91
2023-04-02T09:44:16.695Z,96581.44
2023-04-02T09:46:56.693Z,96573.72
2023-04-02T09:49:42.023Z,96575.06
2023-04-02T09:52:21.904Z,96570.91
2023-04-02T09:55:26.104Z,96575.50
2023-04-02T09:58:14.048Z,96577.81
2023-04-02T10:00:54.719Z,96565.44
2023-04-02T10:03:53.755Z,96564.47
2023-04-02T10:06:25.219Z,96564.56
2023-04-02T10:09:18.772Z,96560.63
2023-04-02T10:12:16.915Z,96557.84
2023-04-02T10:17:27.908Z,96572.94
2023-04-02T10:20:09.701Z,96569.66
2023-04-02T10:22:42.744Z,96561.22
2023-04-02T10:25:24.178Z,96567.03
2023-04-02T10:28:23.042Z,96572.06
2023-04-02T10:31:07.610Z,96569.41
2023-04-02T10:33:41.180Z,96573.84
2023-04-02T10:36:48.973Z,96572.44
2023-04-02T10:39:48.952Z,96558.16
2023-04-02T10:43:20.186Z,96568.00
2023-04-02T10:46:47.706Z,96554.25
2023-04-02T10:49:53.204Z,96567.91
2023-04-02T10:52:51.265Z,96551.09
2023-04-02T10:55:32.615Z,96544.88
2023-04-02T10:58:24.809Z,96558.72
2023-04-02T11:01:07.213Z,96561.66
2023-04-02T11:03:45.134Z,96546.41
2023-04-02T11:06:28.666Z,96547.78
2023-04-02T11:09:19.872Z,96533.34
2023-04-02T11:11:53.989Z,96545.81
2023-04-02T11:14:32.105Z,96563.81
2023-04-02T11:17:08.296Z,96546.56
2023-04-02T11:19:38.083Z,96558.09
2023-04-02T11:22:21.316Z,96551.63
2023-04-02T11:24:56.954Z,96549.00
2023-04-02T11:27:36.104Z,96542.53
2023-04-02T11:30:16.213Z,96524.44
2023-04-02T11:32:49.960Z,96534.66
2023-04-02T11:35:32.625Z,96530.44
2023-04-02T11:38:26.210Z,96529.97
2023-04-02T11:40:56.511Z,96518.69
2023-04-02T11:43:41.739Z,96510.75
2023-04-02T11:46:39.648Z,96514.44
2023-04-02T11:49:38.483Z,96519.16
2023-04-02T11:52:21.667Z,96534.03
2023-04-02T11:55:28.999Z,96507.50
2023-04-02T11:59:08.524Z,96507.97
2023-04-02T12:02:00.248Z,96519.69
2023-04-02T12:04:51.030Z,96511.75
2023-04-02T12:07:47.023Z,96490.59
2023-04-02T12:10:23.370Z,96485.25
2023-04-02T12:12:54.086Z,96479.78
2023-04-02T12:15:55.086Z,96481.31
2023-04-02T12:18:24.873Z,96455.72
2023-04-02T12:20:59.078Z,96456.50
2023-04-02T12:23:37.856Z,96465.69
2023-04-02T12:26:30.282Z,96460.69
2023-04-02T12:29:26.480Z,96446.72
2023-04-02T12:31:59.233Z,96447.28
2023-04-02T12:34:35.261Z,96448.00
2023-04-02T12:37:05.783Z,96450.78
2023-04-02T12:39:35.368Z,96458.06
2023-04-02T12:42:04.120Z,96466.56
2023-04-02T12:44:33.710Z,96447.41
2023-04-02T12:47:09.636Z,96447.41
2023-04-02T12:49:43.739Z,96455.06
2023-04-02T12:52:22.304Z,96451.66
2023-04-02T12:54:55.158Z,96442.50
2023-04-02T12:57:25.689Z,96449.38
2023-04-02T13:00:00.745Z,96433.69
2023-04-02T13:02:44.981Z,96443.56
2023-04-02T13:05:12.664Z,96441.19
2023-04-02T13:07:42.982Z,96435.63
2023-04-02T13:10:30.656Z,96439.41
2023-04-02T13:13:03.416Z,96438.72
2023-04-02T13:15:37.133Z,96444.63
2023-04-02T13:18:13.584Z,96438.66
2023-04-02T13:20:43.781Z,96436.28
2023-04-02T13:23:29.380Z,96433.47
2023-04-02T13:26:03.066Z,96422.66
2023-04-02T13:28:31.931Z,96417.56
2023-04-02T13:30:59.524Z,96410.47
2023-04-02T13:33:27.862Z,96412.47
2023-04-02T13:35:55.417Z,96418.66
2023-04-02T13:38:22.760Z,96426.34
2023-04-02T13:40:54.528Z,96409.13
2023-04-02T13:43:22.145Z,96415.38
2023-04-02T13:46:00.136Z,96408.72
2023-04-02T13:48:29.095Z,96408.97
2023-04-02T13:50:59.806Z,96409.88
2023-04-02T13:53:36.348Z,96407.84
2023-04-02T13:56:03.878Z,96409.63
2023-04-02T13:58:31.200Z,96415.75
2023-04-02T14:01:01.148Z,96415.00
2023-04-02T14:03:33.628Z,96414.34
2023-04-02T14:06:16.820Z,96422.41
2023-04-02T14:09:02.522Z,96404.34
2023-04-02T14:11:56.635Z,96403.59
2023-04-02T14:14:51.485Z,96403.63
2023-04-02T14:20:56.900Z,96414.47
2023-04-02T14:23:52.127Z,96404.19
2023-04-02T14:27:16.109Z,96394.78
2023-04-02T14:30:28.592Z,96397.34
2023-04-02T14:37:33.298Z,96385.84
2023-04-02T14:40:23.572Z,96381.03
2023-04-02T14:43:05.221Z,96404.72
2023-04-02T14:46:38.122Z,96402.53
2023-04-02T14:49:56.232Z,96395.69
2023-04-02T14:52:42.314Z,96408.13
2023-04-02T14:55:39.077Z,96414.41
2023-04-02T14:58:18.718Z,96417.25
2023-04-02T15:01:05.553Z,96410.13
2023-04-02T15:04:03.124Z,96416.00
2023-04-02T15:06:52.769Z,96417.94
2023-04-02T15:09:45.640Z,96421.00
2023-04-02T15:12:29.235Z,96425.47
2023-04-02T15:15:24.364Z,96425.00
2023-04-02T15:18:01.601Z,96417.97
2023-04-02T15:21:24.177Z,96412.59
2023-04-02T15:23:58.093Z,96430.41
2023-04-02T15:26:36.473Z,96428.91
2023-04-02T15:29:44.040Z,96432.97
2023-04-02T15:32:39.688Z,96427.88
2023-04-02T15:35:11.716Z,96428.56
2023-04-02T15:37:45.827Z,96443.66
2023-04-02T15:40:59.232Z,96443.59
2023-04-02T15:43:38.762Z,96444.03
2023-04-02T15:46:15.206Z,96443.97
2023-04-02T15:49:42.850Z,96432.06
2023-04-02T15:52:18.409Z,96420.94
2023-04-02T15:55:02.300Z,96425.78
2023-04-02T15:57:58.425Z,96417.88
2023-04-02T16:00:58.697Z,96430.19
2023-04-02T16:03:59.927Z,96420.25
2023-04-02T16:07:43.264Z,96428.06
2023-04-02T16:10:41.716Z,96426.84
2023-04-02T16:13:36.085Z,96433.81
2023-04-02T16:16:36.351Z,96433.22
2023-04-02T16:19:41.926Z,96439.59
2023-04-02T16:22:18.517Z,96446.50
2023-04-02T16:24:56.873Z,96448.22
2023-04-02T16:27:41.503Z,96447.16
2023-04-02T16:30:20.950Z,96448.81
2023-04-02T16:33:31.835Z,96457.78
2023-04-02T16:36:08.408Z,96468.75
2023-04-02T16:38:48.590Z,96473.34
2023-04-02T16:41:53.318Z,96467.16
2023-04-02T16:44:42.231Z,96472.38
2023-04-02T16:47:28.641Z,96485.25
2023-04-02T16:50:01.870Z,96482.88
2023-04-02T16:52:56.484Z,96484.91
2023-04-02T16:55:48.902Z,96510.53
2023-04-02T16:58:43.909Z,96505.63
2023-04-02T17:01:44.823Z,96516.31
2023-04-02T17:04:51.354Z,96516.69
2023-04-02T17:08:13.681Z,96512.00
2023-04-02T17:10:58.057Z,96506.13
2023-04-02T17:14:06.242Z,96494.94
2023-04-02T17:16:41.056Z,96486.25
2023-04-02T17:19:15.982Z,96496.25
2023-04-02T17:21:49.013Z,96502.91
2023-04-02T17:24:39.216Z,96507.97
2023-04-02T17:27:30.578Z,96506.59
2023-04-02T17:30:43.625Z,96502.44
2023-04-02T17:33:22.261Z,96497.28
2023-04-02T17:36:08.518Z,96495.06
2023-04-02T17:39:07.581Z,96485.59
2023-04-02T17:41:50.189Z,96488.78
2023-04-02T17:44:44.204Z,96485.34
2023-04-02T17:47:25.193Z,96485.78
2023-04-02T17:50:12.954Z,96486.81
2023-04-02T17:53:28.644Z,96484.06
2023-04-02T17:56:51.458Z,96485.38
2023-04-02T17:59:32.080Z,96484.38
2023-04-02T18:02:09.264Z,96490.69
2023-04-02T18:04:46.828Z,96493.09
2023-04-02T18:07:32.417Z,96490.75
2023-04-02T18:10:12.500Z,96495.25
2023-04-02T18:12:51.993Z,96493.78
2023-04-02T18:15:30.176Z,96502.47
2023-04-02T18:18:32.287Z,96512.66
2023-04-02T18:21:06.723Z,96518.66
2023-04-02T18:23:55.805Z,96517.50
2023-04-02T18:26:38.484Z,96531.72
2023-04-02T18:29:15.272Z,96531.63
2023-04-02T18:31:49.510Z,96534.34
2023-04-02T18:34:28.577Z,96554.78
2023-04-02T18:37:05.437Z,96564.34
2023-04-02T18:39:39.676Z,96560.97
2023-04-02T18:42:16.663Z,96566.19
2023-04-02T18:45:01.011Z,96571.53
2023-04-02T18:47:42.970Z,96577.13
2023-04-02T18:50:19.005Z,96578.88
2023-04-02T18:52:48.833Z,96579.94
2023-04-02T18:55:22.688Z,96585.44
2023-04-02T18:57:59.233Z,96590.16
2023-04-02T19:00:34.885Z,96586.16
2023-04-02T19:03:09.300Z,96594.50
2023-04-02T19:05:45.710Z,96600.69
2023-04-02T19:08:24.498Z,96596.44
2023-04-02T19:10:59.866Z,96605.94
2023-04-02T19:13:30.778Z,96614.72
2023-04-02T19:16:13.021Z,96618.66
2023-04-02T19:18:50.114Z,96623.91
2023-04-02T19:21:33.148Z,96632.19
2023-04-02T19:24:13.309Z,96628.53
2023-04-02T19:27:09.007Z,96625.28
2023-04-02T19:29:52.224Z,96631.50
2023-04-02T19:32:30.398Z,96637.38
2023-04-02T19:35:15.321Z,96638.31
2023-04-02T19:38:06.075Z,96632.97
2023-04-02T19:40:54.745Z,96639.16
2023-04-02T19:43:30.357Z,96651.03
2023-04-02T19:46:04.647Z,96649.38
2023-04-02T19:48:49.014Z,96654.00
2023-04-02T19:51:17.589Z,96648.34
2023-04-02T19:53:48.163Z,96648.56
2023-04-02T19:56:16.129Z,96644.63
2023-04-02T19:58:45.174Z,96649.03
2023-04-02T20:01:13.403Z,96649.63
2023-04-02T20:03:47.307Z,96653.41
2023-04-02T20:06:17.905Z,96654.22
2023-04-02T20:08:47.355Z,96665.22
2023-04-02T20:11:16.075Z,96659.19
2023-04-02T20:13:46.813Z,96661.19
2023-04-02T20:16:14.824Z,96663.94
2023-04-02T20:18:43.129Z,96664.69
2023-04-02T20:21:11.640Z,96659.19
2023-04-02T20:23:44.353Z,96652.22
2023-04-02T20:26:13.202Z,96651.69
2023-04-02T20:28:44.803Z,96660.53
2023-04-02T20:31:18.392Z,96650.78
2023-04-02T20:33:55.318Z,96653.88
2023-04-02T20:36:25.066Z,96649.31
2023-04-02T20:38:53.126Z,96649.47
2023-04-02T20:41:24.260Z,96655.34
2023-04-02T20:43:52.308Z,96651.34
2023-04-02T20:46:20.510Z,96652.72
2023-04-02T20:48:48.353Z,96653.66
2023-04-02T20:51:18.782Z,96653.25
2023-04-02T20:53:46.814Z,96657.94
2023-04-02T20:56:18.608Z,96655.81
2023-04-02T20:58:46.301Z,96657.75
2023-04-02T21:01:20.283Z,96656.81
2023-04-02T21:03:49.934Z,96661.91
2023-04-02T21:06:21.677Z,96655.53
2023-04-02T21:08:50.313Z,96654.84
2023-04-02T21:11:18.850Z,96655.16
2023-04-02T21:13:46.696Z,96662.09
2023-04-02T21:16:20.702Z,96654.59
2023-04-02T21:18:51.200Z,96652.00
2023-04-02T21:21:21.188Z,96652.97
2023-04-02T21:23:59.534Z,96648.56
2023-04-02T21:26:34.213Z,96646.16
2023-04-02T21:29:04.327Z,96653.63
2023-04-02T21:31:37.731Z,96652.44
2023-04-02T21:34:07.359Z,96648.34
2023-04-02T21:36:41.285Z,96641.78
2023-04-02T21:39:18.995Z,96642.00
2023-04-02T21:41:52.214Z,96640.28
2023-04-02T21:44:23.194Z,96642.56
2023-04-02T21:46:53.980Z,96638.75
2023-04-02T21:49:23.477Z,96630.47
2023-04-02T21:51:52.083Z,96630.72
2023-04-02T21:54:20.304Z,96645.84
2023-04-02T21:56:49.202Z,96634.22
2023-04-02T21:59:18.528Z,96640.53
2023-04-02T22:01:53.767Z,96625.97
2023-04-02T22:04:25.526Z,96624.06
2023-04-02T22:06:55.932Z,96622.69
2023-04-02T22:09:26.857Z,96618.75
2023-04-02T22:11:59.437Z,96618.72
2023-04-02T22:14:27.676Z,96622.84
2023-04-02T22:16:55.869Z,96613.97
2023-04-02T22:19:23.701Z,96621.34
2023-04-02T22:21:54.346Z,96625.50
2023-04-02T22:24:22.612Z,96612.34
2023-04-02T22:26:50.662Z,96620.13
2023-04-02T22:29:18.313Z,96617.00
2023-04-02T22:31:48.782Z,96608.50
2023-04-02T22:34:16.355Z,96606.47
2023-04-02T22:36:45.821Z,96611.38
2023-04-02T22:39:13.491Z,96609.22
2023-04-02T22:42:27.986Z,96613.03
2023-04-02T22:44:40.100Z,96617.78
2023-04-02T22:47:07.597Z,96611.78
2023-04-02T22:49:34.855Z,96611.09
2023-04-02T22:52:05.848Z,96612.59
2023-04-02T22:54:33.306Z,96609.56
2023-04-02T22:57:01.003Z,96608.09
2023-04-02T22:59:33.364Z,96608.63
2023-04-02T23:02:04.057Z,96604.00
2023-04-02T23:04:32.732Z,96607.66
2023-04-02T23:07:01.826Z,96597.84
2023-04-02T23:09:33.665Z,96588.88
2023-04-02T23:12:03.481Z,96589.69
2023-04-02T23:14:31.136Z,96588.84
2023-04-02T23:16:58.568Z,96588.72
2023-04-02T23:19:28.059Z,96581.38
2023-04-02T23:21:55.588Z,96580.56
2023-04-02T23:24:22.881Z,96583.94
2023-04-02T23:26:50.381Z,96581.38
2023-04-02T23:29:17.664Z,96573.06
2023-04-02T23:31:47.728Z,96571.44
2023-04-02T23:34:15.308Z,96574.16
2023-04-02T23:36:42.793Z,96569.50
2023-04-02T23:39:13.326Z,96559.13
2023-04-02T23:41:43.793Z,96561.31
2023-04-02T23:44:12.713Z,96562.16
2023-04-02T23:46:40.360Z,96571.25
2023-04-02T23:49:11.639Z,96565.16
2023-04-02T23:51:39.354Z,96569.50
2023-04-02T23:54:06.819Z,96570.28
2023-04-02T23:56:34.131Z,96566.31
2023-04-02T23:59:03.940Z,96562.38
